Time;durP1;ratioP1;P1;durP2;ratioP2;P2;SDS_P1;SDS_P2;PMS_P1;PMS_P2;Temp;Humidity;BMP_temperature;BMP_pressure;BME280_temperature;BME280_humidity;BME280_pressure;Samples;Min_cycle;Max_cycle;Signal;HPM_P1;HPM_P2
2023/01/02 00:01:09;;;;;;;11.43;5.00;;;;;;;6.63;100.00;96660.88;5039663;28;20221;-71
2023/01/02 00:03:35;;;;;;;10.30;4.87;;;;;;;6.63;100.00;96662.69;5039003;28;20795;-72
2023/01/02 00:06:02;;;;;;;8.17;4.40;;;;;;;6.73;100.00;96661.69;5039030;28;20659;-71
2023/01/02 00:08:29;;;;;;;7.87;4.47;;;;;;;6.63;100.00;96654.81;5039305;28;20208;-72
2023/01/02 00:10:55;;;;;;;10.27;4.67;;;;;;;6.45;100.00;96654.72;5039467;28;20248;-72
2023/01/02 00:13:23;;;;;;;11.77;4.63;;;;;;;6.66;100.00;96658.00;5038840;28;20228;-71
2023/01/02 00:15:50;;;;;;;9.80;4.33;;;;;;;6.60;100.00;96660.38;5038506;28;20205;-71
2023/01/02 00:18:16;;;;;;;9.83;4.27;;;;;;;6.56;100.00;96648.53;5039160;28;20979;-71
2023/01/02 00:20:43;;;;;;;9.03;4.40;;;;;;;6.55;100.00;96642.44;5039089;28;20213;-72
2023/01/02 00:23:09;;;;;;;8.60;4.30;;;;;;;6.53;100.00;96635.69;5038931;28;20212;-70
2023/01/02 00:25:36;;;;;;;11.60;4.93;;;;;;;6.17;100.00;96632.09;5038156;28;20201;-71
2023/01/02 00:28:03;;;;;;;10.23;4.80;;;;;;;6.21;100.00;96622.16;5038893;28;21003;-71
2023/01/02 00:30:31;;;;;;;11.30;5.17;;;;;;;6.34;100.00;96623.50;5038535;28;20229;-71
2023/01/02 00:32:57;;;;;;;8.93;4.80;;;;;;;6.42;100.00;96610.53;5039255;28;20197;-72
2023/01/02 00:35:24;;;;;;;10.57;5.10;;;;;;;6.47;100.00;96603.06;5038028;28;20212;-72
2023/01/02 00:37:51;;;;;;;11.80;4.67;;;;;;;6.62;100.00;96596.41;5038775;28;20212;-72
2023/01/02 00:40:18;;;;;;;9.87;4.80;;;;;;;6.57;100.00;96603.88;5038670;28;20221;-72
2023/01/02 00:42:44;;;;;;;10.70;4.63;;;;;;;6.60;100.00;96614.03;5038922;28;20201;-72
2023/01/02 00:45:11;;;;;;;11.63;5.10;;;;;;;6.52;100.00;96602.63;5037375;28;20209;-71
2023/01/02 00:47:39;;;;;;;9.93;4.57;;;;;;;6.54;100.00;96598.91;5038379;28;20209;-72
2023/01/02 00:50:07;;;;;;;8.53;5.07;;;;;;;6.46;100.00;96605.84;5038573;28;20232;-72
2023/01/02 00:52:33;;;;;;;11.77;5.40;;;;;;;6.38;100.00;96603.13;5038356;28;20212;-71
2023/01/02 00:55:00;;;;;;;11.30;5.00;;;;;;;6.31;100.00;96596.78;5037711;28;20208;-72
2023/01/02 00:57:26;;;;;;;10.17;4.70;;;;;;;6.40;100.00;96596.78;5037587;28;20229;-72
2023/01/02 00:59:52;;;;;;;9.83;5.03;;;;;;;6.37;100.00;96591.81;5039588;28;20221;-71
2023/01/02 01:02:19;;;;;;;9.60;4.87;;;;;;;6.29;100.00;96583.03;5038904;28;20227;-72
2023/01/02 01:04:47;;;;;;;9.37;4.13;;;;;;;6.20;100.00;96578.66;5037100;28;20209;-72
2023/01/02 01:07:13;;;;;;;10.17;4.70;;;;;;;6.11;100.00;96580.31;5037842;28;20212;-72
2023/01/02 01:09:40;;;;;;;11.83;4.83;;;;;;;6.20;100.00;96584.72;5038296;28;20713;-72
2023/01/02 01:12:06;;;;;;;9.87;4.23;;;;;;;6.21;100.00;96581.13;5037965;28;20228;-72
2023/01/02 01:14:34;;;;;;;8.83;4.33;;;;;;;6.28;100.00;96576.97;5037352;28;20201;-71
2023/01/02 01:17:00;;;;;;;9.30;4.40;;;;;;;6.21;100.00;96581.13;5038686;28;20216;-71
2023/01/02 01:19:29;;;;;;;9.73;4.17;;;;;;;6.28;100.00;96590.06;5037715;28;20228;-71
2023/01/02 01:21:57;;;;;;;8.43;4.13;;;;;;;6.35;100.00;96593.75;5037839;28;21018;-70
2023/01/02 01:24:23;;;;;;;7.77;3.87;;;;;;;6.08;100.00;96591.09;5037385;28;20201;-71
2023/01/02 01:26:50;;;;;;;9.30;4.47;;;;;;;6.26;100.00;96583.31;5037837;28;20214;-72
2023/01/02 01:29:16;;;;;;;10.40;5.00;;;;;;;6.25;100.00;96584.28;5037756;28;20201;-71
2023/01/02 01:31:43;;;;;;;9.73;4.37;;;;;;;6.22;100.00;96582.78;5037753;28;20217;-72
2023/01/02 01:34:11;;;;;;;8.77;4.53;;;;;;;6.22;100.00;96582.78;5036889;28;20205;-71
2023/01/02 01:36:37;;;;;;;9.10;4.33;;;;;;;6.28;100.00;96581.38;5037291;28;20593;-72
2023/01/02 01:39:05;;;;;;;9.70;4.30;;;;;;;6.30;100.00;96567.19;5038054;28;20235;-72
2023/01/02 01:41:31;;;;;;;15.40;4.70;;;;;;;6.17;100.00;96579.78;5038032;28;20197;-72
2023/01/02 01:44:00;;;;;;;8.40;4.30;;;;;;;6.20;100.00;96574.25;5036772;28;20197;-72
2023/01/02 01:46:30;;;;;;;9.07;4.60;;;;;;;6.34;100.00;96581.63;5037517;28;20205;-72
2023/01/02 01:49:02;;;;;;;7.83;4.17;;;;;;;6.24;100.00;96580.84;5037488;28;20678;-71
2023/01/02 01:51:30;;;;;;;8.73;4.70;;;;;;;6.23;100.00;96560.06;5036923;28;20240;-72
2023/01/02 01:54:01;;;;;;;8.57;4.07;;;;;;;6.30;100.00;96574.19;5036834;28;20576;-72
2023/01/02 01:56:29;;;;;;;7.37;4.00;;;;;;;6.29;100.00;96586.47;5037036;28;20213;-71
2023/01/02 01:58:55;;;;;;;9.30;4.13;;;;;;;6.26;100.00;96578.06;5037213;28;20865;-71
2023/01/02 02:01:22;;;;;;;10.30;4.63;;;;;;;6.26;100.00;96586.75;5037461;28;20229;-72
2023/01/02 02:03:50;;;;;;;10.73;4.57;;;;;;;6.27;100.00;96574.50;5036842;28;20205;-72
2023/01/02 02:06:19;;;;;;;8.73;4.47;;;;;;;6.13;100.00;96581.00;5036699;28;20673;-71
2023/01/02 02:08:50;;;;;;;9.40;3.93;;;;;;;6.10;100.00;96572.63;5037064;28;20600;-72
2023/01/02 02:11:17;;;;;;;10.40;4.53;;;;;;;6.21;100.00;96573.28;5037971;28;20232;-71
2023/01/02 02:13:46;;;;;;;8.30;4.17;;;;;;;6.03;100.00;96565.47;5036521;28;20201;-71
2023/01/02 02:16:27;;;;;;;9.37;4.50;;;;;;;6.18;100.00;96560.47;5036401;28;20810;-72
2023/01/02 02:19:09;;;;;;;9.27;4.83;;;;;;;6.27;100.00;96556.19;5036834;28;20880;-71
2023/01/02 02:21:56;;;;;;;8.63;4.57;;;;;;;6.21;100.00;96549.72;5036673;28;20208;-72
2023/01/02 02:24:43;;;;;;;9.27;4.43;;;;;;;6.28;100.00;96542.94;5036293;28;20238;-70
2023/01/02 02:27:34;;;;;;;11.40;4.13;;;;;;;6.26;100.00;96541.44;5037135;28;20212;-72
2023/01/02 02:30:16;;;;;;;9.77;3.93;;;;;;;6.15;100.00;96544.25;5036673;28;20221;-71
2023/01/02 02:33:20;;;;;;;8.17;3.83;;;;;;;6.24;100.00;96541.59;5036629;28;20221;-72
2023/01/02 02:35:59;;;;;;;8.00;4.47;;;;;;;6.11;100.00;96542.88;5004615;28;20201;-72
2023/01/02 02:38:38;;;;;;;7.57;3.63;;;;;;;6.14;100.00;96543.41;5036506;28;20249;-72
2023/01/02 02:41:15;;;;;;;8.83;3.97;;;;;;;6.09;100.00;96542.19;5036912;28;20255;-72
2023/01/02 02:43:52;;;;;;;7.63;4.10;;;;;;;6.05;100.00;96546.88;5036259;28;20205;-72
2023/01/02 02:46:27;;;;;;;9.00;4.13;;;;;;;5.97;100.00;96537.25;5036625;28;20728;-71
2023/01/02 02:49:03;;;;;;;9.37;4.07;;;;;;;6.03;100.00;96534.09;5036522;28;20201;-72
2023/01/02 02:51:36;;;;;;;7.57;4.20;;;;;;;6.07;100.00;96541.50;5036552;28;20232;-71
2023/01/02 02:54:08;;;;;;;8.43;4.07;;;;;;;6.07;100.00;96533.66;5036552;28;20220;-72
2023/01/02 02:56:36;;;;;;;8.13;4.10;;;;;;;6.08;100.00;96530.91;5036302;28;20213;-72
2023/01/02 02:59:03;;;;;;;6.43;3.43;;;;;;;6.05;100.00;96538.22;5036809;28;20213;-72
2023/01/02 03:01:30;;;;;;;11.37;4.23;;;;;;;6.03;100.00;96536.72;5036823;28;20221;-71
2023/01/02 03:03:57;;;;;;;8.77;3.87;;;;;;;5.96;100.00;96526.00;5035587;28;20197;-71
2023/01/02 03:06:44;;;;;;;7.77;4.20;;;;;;;6.13;100.00;96533.91;5036439;28;20205;-72
2023/01/02 03:09:18;;;;;;;5.70;3.50;;;;;;;6.13;100.00;96528.66;5039423;28;20216;-72
2023/01/02 03:11:54;;;;;;;10.63;3.67;;;;;;;6.10;100.00;96531.59;5040234;28;20236;-73
2023/01/02 03:14:24;;;;;;;6.70;3.80;;;;;;;6.09;100.00;96535.16;5040328;28;20216;-72
2023/01/02 03:16:59;;;;;;;9.47;3.73;;;;;;;6.11;100.00;96533.25;5040517;28;20205;-72
2023/01/02 03:19:35;;;;;;;10.47;4.03;;;;;;;6.02;100.00;96537.66;5037814;28;20208;-71
2023/01/02 03:22:08;;;;;;;8.93;3.90;;;;;;;6.04;100.00;96536.56;5040198;28;20205;-72
2023/01/02 03:24:38;;;;;;;8.67;4.27;;;;;;;6.10;100.00;96531.59;5039662;28;20197;-71
2023/01/02 03:27:09;;;;;;;6.80;3.50;;;;;;;5.97;100.00;96545.13;5041421;28;20771;-71
2023/01/02 03:29:39;;;;;;;7.43;3.90;;;;;;;6.04;100.00;96536.56;5039896;28;20225;-72
2023/01/02 03:32:12;;;;;;;6.80;3.87;;;;;;;6.12;100.00;96545.34;5040040;28;20233;-72
2023/01/02 03:34:43;;;;;;;7.47;3.20;;;;;;;5.94;100.00;96534.94;5040138;28;20256;-70
2023/01/02 03:37:15;;;;;;;6.17;3.27;;;;;;;5.89;100.00;96537.16;5040133;28;20208;-70
2023/01/02 03:39:46;;;;;;;9.43;3.60;;;;;;;5.94;100.00;96534.94;5039480;28;20236;-71
2023/01/02 03:42:19;;;;;;;6.13;3.47;;;;;;;6.00;100.00;96540.44;5039956;28;20205;-71
2023/01/02 03:44:55;;;;;;;8.27;3.60;;;;;;;6.06;100.00;96539.88;5039312;28;20216;-71
2023/01/02 03:47:28;;;;;;;6.77;3.77;;;;;;;6.09;100.00;96532.53;5039826;28;20216;-72
2023/01/02 03:49:58;;;;;;;7.93;4.27;;;;;;;6.05;100.00;96533.78;5039910;28;20221;-72
2023/01/02 03:52:24;;;;;;;7.63;3.77;;;;;;;5.82;100.00;96529.06;5038611;28;20235;-72
2023/01/02 03:54:51;;;;;;;10.53;3.93;;;;;;;5.69;100.00;96520.66;5038887;28;21145;-72
2023/01/02 03:57:25;;;;;;;7.30;3.67;;;;;;;5.82;100.00;96525.63;5039666;28;20220;-72
2023/01/02 03:59:59;;;;;;;7.43;3.80;;;;;;;5.86;100.00;96527.81;5039942;28;20216;-71
2023/01/02 04:02:35;;;;;;;5.80;3.33;;;;;;;5.93;100.00;96528.06;5039497;28;20204;-72
2023/01/02 04:05:07;;;;;;;8.87;3.20;;;;;;;5.89;100.00;96531.94;5038734;28;20677;-72
2023/01/02 04:07:39;;;;;;;6.43;3.37;;;;;;;5.79;100.00;96525.88;5039290;28;20201;-72
2023/01/02 04:10:08;;;;;;;8.23;3.77;;;;;;;5.95;100.00;96528.75;5039083;28;20240;-72
2023/01/02 04:12:39;;;;;;;8.77;3.97;;;;;;;6.04;100.00;96542.59;5039303;28;20243;-71
2023/01/02 04:15:08;;;;;;;7.37;3.87;;;;;;;5.99;100.00;96530.13;5038860;28;20201;-71
2023/01/02 04:17:41;;;;;;;6.20;3.40;;;;;;;5.95;100.00;96528.75;5039224;28;20208;-70
2023/01/02 04:20:13;;;;;;;10.73;3.80;;;;;;;5.98;100.00;96526.66;5038548;28;20265;-72
2023/01/02 04:22:45;;;;;;;8.33;3.23;;;;;;;5.99;100.00;96533.53;5039328;28;20205;-72
2023/01/02 04:25:14;;;;;;;12.90;3.23;;;;;;;6.02;100.00;96524.59;5038527;28;20205;-71
2023/01/02 04:27:46;;;;;;;6.33;3.33;;;;;;;6.12;100.00;96531.44;5038197;28;20205;-71
2023/01/02 04:30:13;;;;;;;7.17;3.50;;;;;;;5.96;100.00;96525.16;5039491;28;20713;-72
2023/01/02 04:32:42;;;;;;;7.37;3.57;;;;;;;6.04;100.00;96519.06;5038351;28;20233;-72
2023/01/02 04:35:11;;;;;;;9.90;3.37;;;;;;;6.04;100.00;96525.28;5037823;28;21029;-72
2023/01/02 04:37:39;;;;;;;8.93;3.40;;;;;;;5.92;100.00;96531.63;5038897;28;20201;-71
2023/01/02 04:40:12;;;;;;;7.97;3.23;;;;;;;6.10;100.00;96536.00;5039352;28;20229;-70
2023/01/02 04:42:39;;;;;;;13.63;3.30;;;;;;;5.89;100.00;96526.69;5037778;28;20193;-71
2023/01/02 04:45:06;;;;;;;5.90;3.30;;;;;;;5.97;100.00;96529.41;5037819;28;20689;-70
2023/01/02 04:47:33;;;;;;;7.40;3.57;;;;;;;5.97;100.00;96534.66;5039495;28;20205;-72
2023/01/02 04:50:00;;;;;;;7.63;3.53;;;;;;;6.08;100.00;96533.53;5038528;28;20240;-71
2023/01/02 04:52:28;;;;;;;11.27;4.30;;;;;;;6.10;100.00;96530.78;5038163;28;20231;-71
2023/01/02 04:54:54;;;;;;;7.53;3.77;;;;;;;6.05;100.00;96528.56;5038278;28;20205;-72
2023/01/02 04:57:21;;;;;;;8.30;4.00;;;;;;;6.10;100.00;96526.34;5038425;28;21013;-70
2023/01/02 04:59:47;;;;;;;8.77;3.70;;;;;;;5.97;100.00;96524.19;5038188;28;20221;-72
2023/01/02 05:02:14;;;;;;;8.70;3.50;;;;;;;6.04;100.00;96519.06;5038544;28;20688;-72
2023/01/02 05:04:40;;;;;;;7.90;3.20;;;;;;;6.05;100.00;96533.78;5037327;28;20688;-71
2023/01/02 05:07:08;;;;;;;9.23;3.50;;;;;;;6.18;100.00;96534.31;5038226;28;20216;-71
2023/01/02 05:09:35;;;;;;;6.00;2.80;;;;;;;6.04;100.00;96540.00;5038355;28;20221;-71
2023/01/02 05:12:01;;;;;;;9.47;3.07;;;;;;;5.94;100.00;96534.94;5038189;28;20224;-72
2023/01/02 05:14:30;;;;;;;7.57;3.20;;;;;;;6.08;100.00;96530.91;5036888;28;20201;-70
2023/01/02 05:16:56;;;;;;;5.07;2.67;;;;;;;5.91;100.00;96524.78;5038554;28;20209;-72
2023/01/02 05:19:23;;;;;;;5.60;3.03;;;;;;;5.88;100.00;96525.03;5037824;28;20201;-71
2023/01/02 05:24:35;;;;;;;6.60;3.40;;;;;;;6.01;100.00;96528.16;5037107;28;20239;-71
2023/01/02 05:27:01;;;;;;;7.27;3.87;;;;;;;5.84;100.00;96534.97;5037846;28;20206;-71
2023/01/02 05:29:29;;;;;;;8.57;2.70;;;;;;;5.85;100.00;96530.56;5037427;28;20743;-71
2023/01/02 05:31:55;;;;;;;6.30;2.90;;;;;;;5.57;100.00;96536.63;5037170;28;20232;-72
2023/01/02 05:34:22;;;;;;;6.87;3.17;;;;;;;5.79;100.00;96531.97;5036819;28;20214;-71
2023/01/02 05:36:49;;;;;;;6.07;3.10;;;;;;;5.77;100.00;96535.69;5037981;28;20202;-72
2023/01/02 05:39:15;;;;;;;5.67;3.10;;;;;;;5.82;100.00;96541.31;5037480;28;20209;-70
2023/01/02 05:41:43;;;;;;;6.50;2.70;;;;;;;5.85;100.00;96535.78;5037391;28;20197;-72
2023/01/02 05:44:10;;;;;;;6.40;3.33;;;;;;;5.91;100.00;96530.00;5037404;28;20201;-71
2023/01/02 05:46:38;;;;;;;10.07;4.73;;;;;;;5.95;100.00;96528.75;5037549;28;20202;-70
2023/01/02 05:49:05;;;;;;;6.27;3.00;;;;;;;5.90;100.00;96534.41;5037530;28;20209;-72
2023/01/02 05:51:32;;;;;;;6.43;3.47;;;;;;;5.76;100.00;96515.72;5037511;28;20225;-72
2023/01/02 05:53:58;;;;;;;5.33;2.87;;;;;;;5.80;100.00;96520.50;5037140;28;20216;-70
2023/01/02 05:56:26;;;;;;;5.83;3.00;;;;;;;6.01;100.00;96520.31;5037067;28;20209;-72
2023/01/02 05:58:54;;;;;;;4.63;2.83;;;;;;;6.08;100.00;96523.06;5037355;28;20201;-72
2023/01/02 06:01:22;;;;;;;6.63;2.90;;;;;;;6.11;100.00;96533.25;5037300;28;20225;-71
2023/01/02 06:03:50;;;;;;;9.67;3.13;;;;;;;6.03;100.00;96532.28;5036477;28;20199;-71
2023/01/02 06:06:19;;;;;;;6.60;2.80;;;;;;;6.10;100.00;96536.81;5036988;28;20775;-70
2023/01/02 06:08:45;;;;;;;7.67;3.03;;;;;;;6.04;100.00;96529.53;5037730;28;20201;-71
2023/01/02 06:11:12;;;;;;;7.87;2.93;;;;;;;6.08;100.00;96530.06;5037031;28;20228;-72
2023/01/02 06:13:39;;;;;;;5.40;3.00;;;;;;;6.05;100.00;96523.34;5035911;28;20221;-72
2023/01/02 06:16:09;;;;;;;7.93;3.20;;;;;;;6.20;100.00;96537.63;5037505;28;20209;-71
2023/01/02 06:18:37;;;;;;;7.17;3.07;;;;;;;6.16;100.00;96531.03;5036866;28;20198;-72
2023/01/02 06:21:05;;;;;;;7.87;3.50;;;;;;;6.24;100.00;96530.31;5036412;28;20221;-72
2023/01/02 06:23:32;;;;;;;10.63;3.57;;;;;;;6.04;100.00;96533.13;5037007;28;20388;-72
2023/01/02 06:26:02;;;;;;;10.00;3.40;;;;;;;6.21;100.00;96527.97;5036885;28;20197;-71
2023/01/02 06:28:29;;;;;;;7.67;3.33;;;;;;;6.11;100.00;96532.44;5036404;28;20209;-70
2023/01/02 06:30:59;;;;;;;7.10;3.47;;;;;;;6.25;100.00;96540.63;5036457;28;20227;-71
2023/01/02 06:33:27;;;;;;;6.10;3.13;;;;;;;6.15;100.00;96541.63;5036367;28;20247;-71
2023/01/02 06:35:57;;;;;;;6.63;3.53;;;;;;;6.18;100.00;96550.00;5036445;28;20205;-70
2023/01/02 06:38:23;;;;;;;10.43;3.70;;;;;;;6.04;100.00;96545.22;5036722;28;20209;-70
2023/01/02 06:40:54;;;;;;;5.87;3.13;;;;;;;6.12;100.00;96552.38;5036918;28;20217;-70
2023/01/02 06:43:20;;;;;;;7.70;3.50;;;;;;;6.07;100.00;96552.81;5035637;28;20654;-70
2023/01/02 06:45:47;;;;;;;7.03;3.37;;;;;;;5.98;100.00;96544.16;5035878;28;20205;-71
2023/01/02 06:48:14;;;;;;;13.67;3.83;;;;;;;6.09;100.00;96544.81;5036251;28;20213;-69
2023/01/02 06:50:43;;;;;;;12.17;4.07;;;;;;;6.17;100.00;96543.13;5033640;28;21176;-72
2023/01/02 06:53:10;;;;;;;7.93;3.40;;;;;;;6.12;100.00;96549.75;5033427;28;20229;-70
2023/01/02 06:55:36;;;;;;;9.60;3.70;;;;;;;6.16;100.00;96551.94;5035559;28;20263;-70
2023/01/02 06:58:03;;;;;;;11.03;4.10;;;;;;;6.11;100.00;96559.41;5036187;28;20222;-70
2023/01/02 07:00:29;;;;;;;7.67;3.70;;;;;;;6.13;100.00;96562.69;5035812;28;20217;-71
2023/01/02 07:02:56;;;;;;;9.53;3.47;;;;;;;6.18;100.00;96557.84;5035988;28;20588;-70
2023/01/02 07:05:22;;;;;;;8.47;3.67;;;;;;;6.11;100.00;96563.81;5035235;28;20198;-70
2023/01/02 07:07:50;;;;;;;5.43;2.80;;;;;;;6.14;100.00;96558.28;5035850;28;20207;-70
2023/01/02 07:10:16;;;;;;;5.30;2.87;;;;;;;6.03;100.00;96555.84;5035866;28;20251;-71
2023/01/02 07:12:43;;;;;;;8.10;3.53;;;;;;;5.99;100.00;96556.28;5036249;28;20232;-70
2023/01/02 07:15:10;;;;;;;7.27;3.60;;;;;;;5.93;100.00;96564.69;5035471;28;20219;-70
2023/01/02 07:17:36;;;;;;;8.30;4.03;;;;;;;5.82;100.00;96552.59;5036291;28;20201;-71
2023/01/02 07:20:03;;;;;;;6.63;2.97;;;;;;;5.93;100.00;96562.91;5036221;28;20236;-71
2023/01/02 07:22:30;;;;;;;5.40;2.93;;;;;;;6.00;100.00;96563.16;5035863;28;20200;-70
2023/01/02 07:24:57;;;;;;;10.40;3.40;;;;;;;6.10;100.00;96560.34;5034864;28;20794;-70
2023/01/02 07:27:24;;;;;;;8.90;3.70;;;;;;;6.13;100.00;96567.91;5035975;28;20231;-71
2023/01/02 07:29:50;;;;;;;5.33;2.87;;;;;;;6.24;100.00;96574.78;5035473;28;20225;-71
2023/01/02 07:32:17;;;;;;;9.50;3.00;;;;;;;6.23;100.00;96568.72;5035201;28;21264;-70
2023/01/02 07:34:43;;;;;;;7.67;2.80;;;;;;;6.29;100.00;96576.00;5035379;28;20201;-71
2023/01/02 07:37:10;;;;;;;7.53;3.27;;;;;;;6.28;100.00;96568.31;5035834;28;20209;-71
2023/01/02 07:39:36;;;;;;;7.63;3.00;;;;;;;6.27;100.00;96564.03;5035265;28;20731;-69
2023/01/02 07:42:04;;;;;;;6.70;2.70;;;;;;;6.36;100.00;96563.16;5035788;28;20209;-70
2023/01/02 07:44:31;;;;;;;8.67;3.23;;;;;;;6.35;100.00;96566.75;5034746;28;20201;-71
2023/01/02 07:46:57;;;;;;;5.83;2.97;;;;;;;6.45;100.00;96562.31;5036047;28;20247;-70
2023/01/02 07:49:24;;;;;;;9.73;3.67;;;;;;;6.62;100.00;96565.00;5035745;28;20209;-69
2023/01/02 07:51:50;;;;;;;5.93;3.13;;;;;;;6.58;100.00;96566.25;5035714;28;20197;-71
2023/01/02 07:54:17;;;;;;;6.70;3.37;;;;;;;6.54;100.00;96567.50;5036053;28;20232;-71
2023/01/02 07:56:43;;;;;;;6.47;3.43;;;;;;;6.58;100.00;96570.66;5039340;28;20220;-70
2023/01/02 07:59:11;;;;;;;8.03;3.60;;;;;;;6.83;100.00;96569.00;5039860;28;20578;-70
2023/01/02 08:01:37;;;;;;;7.00;3.70;;;;;;;6.90;100.00;96579.75;5038438;28;20213;-71
2023/01/02 08:04:04;;;;;;;6.80;3.03;;;;;;;6.98;100.00;96582.44;5038966;28;20212;-71
2023/01/02 08:06:30;;;;;;;7.60;3.80;;;;;;;7.05;100.00;96584.34;5039472;28;21013;-70
2023/01/02 08:08:57;;;;;;;12.00;4.30;;;;;;;7.15;100.00;96581.63;5039967;28;20197;-71
2023/01/02 08:11:23;;;;;;;10.87;4.57;;;;;;;7.26;100.00;96582.25;5038845;28;20221;-70
2023/01/02 08:13:50;;;;;;;12.50;4.70;;;;;;;7.43;100.00;96584.91;5038125;28;20720;-70
2023/01/02 08:16:20;;;;;;;11.17;4.20;;;;;;;7.66;100.00;96586.09;5039599;28;20208;-70
2023/01/02 08:18:50;;;;;;;11.83;4.40;;;;;;;7.59;100.00;96592.91;5037587;28;20197;-70
2023/01/02 08:21:16;;;;;;;9.83;4.60;;;;;;;7.67;100.00;96590.34;5038538;28;20300;-70
2023/01/02 08:23:43;;;;;;;21.97;7.00;;;;;;;7.78;100.00;96589.28;5038323;28;20201;-69
2023/01/02 08:26:11;;;;;;;29.03;9.73;;;;;;;8.00;100.00;96592.25;5038629;28;20205;-71
2023/01/02 08:28:38;;;;;;;26.20;8.30;;;;;;;8.08;100.00;96598.41;5038666;28;20205;-70
2023/01/02 08:31:09;;;;;;;18.53;7.47;;;;;;;8.22;100.00;96597.88;5039355;28;20233;-70
2023/01/02 08:33:37;;;;;;;24.43;8.57;;;;;;;8.21;100.00;96598.84;5038125;28;20281;-69
2023/01/02 08:36:04;;;;;;;15.83;6.43;;;;;;;8.20;100.00;96599.00;5039005;28;20216;-70
2023/01/02 08:38:31;;;;;;;12.57;5.80;;;;;;;8.20;100.00;96601.63;5039303;28;20205;-71
2023/01/02 08:40:57;;;;;;;8.23;3.13;;;;;;;8.33;100.00;96594.16;5038509;28;20258;-70
2023/01/02 08:43:24;;;;;;;11.20;4.50;;;;;;;8.40;100.00;96595.19;5038362;28;20201;-71
2023/01/02 08:45:50;;;;;;;7.23;3.20;;;;;;;8.49;100.00;96589.84;5038427;28;20205;-70
2023/01/02 08:48:17;;;;;;;13.90;3.13;;;;;;;8.67;100.00;96595.84;5038989;28;20205;-70
2023/01/02 08:50:45;;;;;;;7.73;2.93;;;;;;;8.87;100.00;96589.34;5038384;28;20712;-70
2023/01/02 08:53:11;;;;;;;8.47;3.33;;;;;;;8.92;100.00;96582.63;5037794;28;20228;-70
2023/01/02 08:55:38;;;;;;;5.90;2.40;;;;;;;9.00;100.00;96582.69;5038235;28;20271;-70
2023/01/02 08:58:04;;;;;;;5.70;2.67;;;;;;;9.16;100.00;96577.47;5038199;28;20213;-71
2023/01/02 09:00:31;;;;;;;9.57;2.77;;;;;;;9.28;100.00;96581.47;5038235;28;20224;-70
2023/01/02 09:02:57;;;;;;;7.10;2.80;;;;;;;9.35;100.00;96582.44;5038689;28;20581;-70
2023/01/02 09:05:25;;;;;;;8.07;2.90;;;;;;;9.49;100.00;96579.19;5036885;28;20205;-71
2023/01/02 09:07:52;;;;;;;10.13;2.97;;;;;;;9.66;100.00;96580.84;5037495;28;20665;-71
2023/01/02 09:10:19;;;;;;;8.33;2.80;;;;;;;9.66;99.21;96597.47;5037293;28;20650;-69
2023/01/02 09:12:45;;;;;;;5.87;2.00;;;;;;;9.84;98.86;96606.03;5037504;28;20312;-71
2023/01/02 09:15:12;;;;;;;8.57;2.83;;;;;;;9.95;97.94;96606.56;5036573;28;20676;-70
2023/01/02 09:17:38;;;;;;;10.00;3.43;;;;;;;10.11;96.71;96593.41;5037658;28;20201;-69
2023/01/02 09:20:06;;;;;;;13.63;5.53;;;;;;;10.23;96.43;96607.06;5038324;28;20949;-71
2023/01/02 09:22:32;;;;;;;14.10;4.40;;;;;;;10.24;96.60;96604.25;5037551;28;20205;-71
2023/01/02 09:25:00;;;;;;;8.13;3.30;;;;;;;10.45;95.61;96610.66;5036409;28;20580;-70
2023/01/02 09:27:26;;;;;;;8.00;3.50;;;;;;;10.43;95.00;96609.97;5037838;28;20212;-71
2023/01/02 09:29:53;;;;;;;6.43;2.70;;;;;;;10.57;93.16;96616.41;5038086;28;20225;-71
2023/01/02 09:32:20;;;;;;;4.73;2.50;;;;;;;10.65;92.52;96614.53;5036506;28;20265;-71
2023/01/02 09:34:49;;;;;;;6.73;2.53;;;;;;;10.61;92.90;96622.97;5037176;28;20601;-72
2023/01/02 09:37:16;;;;;;;6.00;1.90;;;;;;;10.72;92.91;96612.09;5038005;28;20309;-71
2023/01/02 09:39:42;;;;;;;3.63;1.93;;;;;;;10.84;91.62;96616.81;5037203;28;20225;-71
2023/01/02 09:42:14;;;;;;;3.60;2.10;;;;;;;11.01;91.90;96621.06;5037808;28;20228;-70
2023/01/02 09:44:45;;;;;;;8.50;1.90;;;;;;;11.01;91.30;96611.31;5036816;28;20201;-71
2023/01/02 09:47:16;;;;;;;3.43;1.97;;;;;;;11.11;89.93;96614.59;5037293;28;20212;-72
2023/01/02 09:49:47;;;;;;;3.17;1.80;;;;;;;11.14;89.78;96621.34;5036991;28;20221;-72
2023/01/02 09:52:17;;;;;;;4.03;2.70;;;;;;;11.19;89.91;96617.19;5037252;28;20297;-71
2023/01/02 09:54:44;;;;;;;8.10;3.83;;;;;;;11.10;89.45;96614.75;5035381;28;21594;-71
2023/01/02 09:57:25;;;;;;;7.50;2.70;;;;;;;11.28;88.98;96616.16;5036476;28;20209;-70
2023/01/02 10:00:00;;;;;;;7.77;2.47;;;;;;;11.35;89.65;96621.56;5036885;28;20221;-71
2023/01/02 10:02:42;;;;;;;7.37;2.97;;;;;;;11.34;88.76;96612.00;5036559;28;20691;-71
2023/01/02 10:05:32;;;;;;;4.57;2.40;;;;;;;11.49;87.80;96613.72;5032567;28;20689;-71
2023/01/02 10:08:08;;;;;;;6.47;2.13;;;;;;;11.51;87.59;96611.78;5034187;28;20205;-70
2023/01/02 10:10:39;;;;;;;4.57;1.77;;;;;;;11.51;88.03;96614.41;5034190;28;20221;-72
2023/01/02 10:13:17;;;;;;;3.20;1.80;;;;;;;11.58;86.49;96612.72;5035690;28;21147;-71
2023/01/02 10:15:50;;;;;;;6.70;2.07;;;;;;;11.57;87.49;96613.72;5036114;28;20581;-71
2023/01/02 10:18:22;;;;;;;3.50;2.20;;;;;;;11.68;85.47;96615.97;5036854;28;20205;-71
2023/01/02 10:20:54;;;;;;;7.37;2.40;;;;;;;11.70;86.04;96616.63;5035878;28;20982;-71
2023/01/02 10:23:24;;;;;;;5.53;2.30;;;;;;;11.74;85.90;96604.72;5037165;28;20620;-71
2023/01/02 10:25:55;;;;;;;4.83;1.90;;;;;;;11.77;85.57;96596.44;5034977;28;20591;-71
2023/01/02 10:28:30;;;;;;;4.80;2.00;;;;;;;11.76;85.59;96602.69;5035526;28;20201;-71
2023/01/02 10:31:01;;;;;;;5.07;2.20;;;;;;;11.78;85.82;96606.00;5035586;28;20243;-71
2023/01/02 10:33:36;;;;;;;8.53;2.97;;;;;;;11.80;85.03;96609.28;5036004;28;20254;-71
2023/01/02 10:36:03;;;;;;;10.77;4.20;;;;;;;11.85;84.37;96622.78;5037939;28;20211;-71
2023/01/02 10:38:35;;;;;;;7.00;2.33;;;;;;;11.91;84.10;96627.34;5038450;28;21102;-72
2023/01/02 10:41:02;;;;;;;6.43;2.30;;;;;;;11.76;85.90;96623.81;5037370;28;20217;-71
2023/01/02 10:43:33;;;;;;;6.10;2.20;;;;;;;12.02;84.27;96604.00;5038549;28;20198;-71
2023/01/02 10:46:00;;;;;;;4.50;2.07;;;;;;;11.95;84.48;96603.09;5037648;28;20205;-71
2023/01/02 10:48:31;;;;;;;8.50;2.50;;;;;;;11.97;85.36;96603.72;5036991;28;20205;-72
2023/01/02 10:51:02;;;;;;;8.93;2.30;;;;;;;12.04;83.80;96593.25;5037303;28;20231;-72
2023/01/02 10:53:31;;;;;;;13.83;2.93;;;;;;;11.90;83.79;96601.94;5037538;28;20592;-72
2023/01/02 10:56:01;;;;;;;4.80;2.13;;;;;;;12.05;83.71;96603.63;5035998;28;20220;-71
2023/01/02 10:58:32;;;;;;;7.37;2.63;;;;;;;12.11;84.49;96596.84;5037006;28;20205;-71
2023/01/02 11:01:07;;;;;;;5.30;2.07;;;;;;;12.14;83.08;96596.47;5031883;28;20243;-71
2023/01/02 11:03:34;;;;;;;5.00;1.70;;;;;;;11.96;83.38;96594.13;5034679;28;20197;-71
2023/01/02 11:06:00;;;;;;;2.83;1.93;;;;;;;12.10;83.53;96605.75;5035422;28;20202;-72
2023/01/02 11:08:35;;;;;;;3.07;1.83;;;;;;;12.13;83.92;96606.25;5031713;28;20213;-71
2023/01/02 11:11:12;;;;;;;6.10;2.27;;;;;;;11.98;85.40;96601.91;5034913;28;20231;-71
2023/01/02 11:13:46;;;;;;;7.07;2.43;;;;;;;12.18;83.15;96614.44;5036270;28;20248;-71
2023/01/02 11:16:13;;;;;;;7.47;2.30;;;;;;;12.17;82.60;96603.06;5036627;28;20725;-71
2023/01/02 11:18:44;;;;;;;5.83;2.30;;;;;;;12.26;81.52;96609.09;5035899;28;20204;-71
2023/01/02 11:21:11;;;;;;;5.70;2.37;;;;;;;12.35;81.79;96603.56;5036399;28;20224;-72
2023/01/02 11:23:41;;;;;;;7.43;2.30;;;;;;;12.36;81.09;96601.75;5036353;28;20202;-72
2023/01/02 11:26:13;;;;;;;5.83;2.10;;;;;;;12.59;80.65;96608.63;5036886;28;20844;-72
2023/01/02 11:28:41;;;;;;;6.50;2.53;;;;;;;12.66;80.49;96609.53;5037852;28;20216;-71
2023/01/02 11:31:11;;;;;;;4.93;2.70;;;;;;;12.77;80.55;96617.03;5041406;28;20731;-72
2023/01/02 11:33:38;;;;;;;6.03;2.20;;;;;;;12.60;82.04;96607.63;5039930;28;20224;-72
2023/01/02 11:36:14;;;;;;;11.10;2.20;;;;;;;12.75;79.75;96613.72;5041020;28;20212;-72
2023/01/02 11:38:44;;;;;;;5.57;2.50;;;;;;;12.92;78.63;96621.34;5041070;28;20217;-71
2023/01/02 11:41:24;;;;;;;6.53;2.70;;;;;;;12.96;80.85;96627.91;5040241;28;20229;-72
2023/01/02 11:44:15;;;;;;;6.63;2.67;;;;;;;12.89;82.27;96626.19;5039729;28;20213;-71